sensor_id;sensor_type;location;lat;lon;timestamp;P1;durP1;ratioP1;P2;durP2;ratioP2
10275;SDS011;5183;51.190;6.820;2022-09-20T00:00:43;11.90;;;3.80;;
10275;SDS011;5183;51.190;6.820;2022-09-20T00:03:11;11.43;;;4.33;;
10275;SDS011;5183;51.190;6.820;2022-09-20T00:05:40;10.90;;;3.97;;
10275;SDS011;5183;51.190;6.820;2022-09-20T00:08:10;13.60;;;3.80;;
10275;SDS011;5183;51.190;6.820;2022-09-20T00:10:39;9.63;;;4.33;;
10275;SDS011;5183;51.190;6.820;2022-09-20T00:13:08;12.87;;;4.20;;
10275;SDS011;5183;51.190;6.820;2022-09-20T00:15:40;10.27;;;3.83;;
10275;SDS011;5183;51.190;6.820;2022-09-20T00:18:09;8.47;;;3.40;;
10275;SDS011;5183;51.190;6.820;2022-09-20T00:20:42;12.60;;;4.10;;
10275;SDS011;5183;51.190;6.820;2022-09-20T00:23:10;8.67;;;3.83;;
10275;SDS011;5183;51.190;6.820;2022-09-20T00:25:37;6.17;;;3.53;;
10275;SDS011;5183;51.190;6.820;2022-09-20T00:28:04;11.60;;;3.80;;
10275;SDS011;5183;51.190;6.820;2022-09-20T00:30:31;8.73;;;3.83;;
10275;SDS011;5183;51.190;6.820;2022-09-20T00:32:59;10.97;;;3.83;;
10275;SDS011;5183;51.190;6.820;2022-09-20T00:35:27;9.37;;;4.10;;
10275;SDS011;5183;51.190;6.820;2022-09-20T00:37:54;8.33;;;3.97;;
10275;SDS011;5183;51.190;6.820;2022-09-20T00:40:21;7.67;;;3.70;;
10275;SDS011;5183;51.190;6.820;2022-09-20T00:42:50;9.53;;;3.73;;
10275;SDS011;5183;51.190;6.820;2022-09-20T00:45:18;11.23;;;4.20;;
10275;SDS011;5183;51.190;6.820;2022-09-20T00:47:47;10.97;;;4.10;;
10275;SDS011;5183;51.190;6.820;2022-09-20T00:50:23;8.80;;;4.10;;
10275;SDS011;5183;51.190;6.820;2022-09-20T00:52:55;9.07;;;4.60;;
10275;SDS011;5183;51.190;6.820;2022-09-20T00:55:27;10.90;;;4.20;;
10275;SDS011;5183;51.190;6.820;2022-09-20T00:57:54;11.63;;;4.40;;
10275;SDS011;5183;51.190;6.820;2022-09-20T01:00:22;11.07;;;4.87;;
10275;SDS011;5183;51.190;6.820;2022-09-20T01:02:49;10.00;;;4.50;;
10275;SDS011;5183;51.190;6.820;2022-09-20T01:05:22;11.40;;;5.07;;
10275;SDS011;5183;51.190;6.820;2022-09-20T01:07:50;11.33;;;4.77;;
10275;SDS011;5183;51.190;6.820;2022-09-20T01:10:17;9.07;;;4.10;;
10275;SDS011;5183;51.190;6.820;2022-09-20T01:12:44;10.27;;;4.80;;
10275;SDS011;5183;51.190;6.820;2022-09-20T01:15:13;10.23;;;4.23;;
10275;SDS011;5183;51.190;6.820;2022-09-20T01:17:42;10.77;;;4.83;;
10275;SDS011;5183;51.190;6.820;2022-09-20T01:20:13;13.60;;;4.37;;
10275;SDS011;5183;51.190;6.820;2022-09-20T01:22:49;9.60;;;4.43;;
10275;SDS011;5183;51.190;6.820;2022-09-20T01:25:29;8.23;;;4.10;;
10275;SDS011;5183;51.190;6.820;2022-09-20T01:28:14;7.50;;;4.10;;
10275;SDS011;5183;51.190;6.820;2022-09-20T01:30:42;9.53;;;4.67;;
10275;SDS011;5183;51.190;6.820;2022-09-20T01:33:15;10.20;;;4.60;;
10275;SDS011;5183;51.190;6.820;2022-09-20T01:35:48;10.63;;;4.70;;
10275;SDS011;5183;51.190;6.820;2022-09-20T01:38:20;11.57;;;4.57;;
10275;SDS011;5183;51.190;6.820;2022-09-20T01:40:55;8.93;;;4.80;;
10275;SDS011;5183;51.190;6.820;2022-09-20T01:43:29;12.50;;;4.53;;
10275;SDS011;5183;51.190;6.820;2022-09-20T01:46:01;10.67;;;4.10;;
10275;SDS011;5183;51.190;6.820;2022-09-20T01:48:36;12.60;;;4.67;;
10275;SDS011;5183;51.190;6.820;2022-09-20T01:51:26;10.27;;;4.40;;
10275;SDS011;5183;51.190;6.820;2022-09-20T02:00:23;10.33;;;4.17;;
10275;SDS011;5183;51.190;6.820;2022-09-20T02:06:12;12.50;;;4.60;;
10275;SDS011;5183;51.190;6.820;2022-09-20T02:11:41;9.90;;;3.87;;
10275;SDS011;5183;51.190;6.820;2022-09-20T02:14:33;8.13;;;4.07;;
10275;SDS011;5183;51.190;6.820;2022-09-20T02:17:11;10.10;;;3.70;;
10275;SDS011;5183;51.190;6.820;2022-09-20T02:22:59;10.60;;;3.90;;
10275;SDS011;5183;51.190;6.820;2022-09-20T02:25:44;8.03;;;3.50;;
10275;SDS011;5183;51.190;6.820;2022-09-20T02:28:42;7.83;;;3.30;;
10275;SDS011;5183;51.190;6.820;2022-09-20T02:31:22;10.60;;;4.10;;
10275;SDS011;5183;51.190;6.820;2022-09-20T02:37:18;11.97;;;4.03;;
10275;SDS011;5183;51.190;6.820;2022-09-20T02:40:00;6.73;;;3.13;;
10275;SDS011;5183;51.190;6.820;2022-09-20T02:42:43;7.73;;;3.20;;
10275;SDS011;5183;51.190;6.820;2022-09-20T02:45:15;12.43;;;4.07;;
10275;SDS011;5183;51.190;6.820;2022-09-20T02:47:48;8.13;;;3.20;;
10275;SDS011;5183;51.190;6.820;2022-09-20T02:50:20;7.17;;;2.80;;
10275;SDS011;5183;51.190;6.820;2022-09-20T02:52:59;9.47;;;3.73;;
10275;SDS011;5183;51.190;6.820;2022-09-20T02:55:37;9.17;;;3.50;;
10275;SDS011;5183;51.190;6.820;2022-09-20T02:58:15;8.50;;;3.60;;
10275;SDS011;5183;51.190;6.820;2022-09-20T03:00:53;8.13;;;3.33;;
10275;SDS011;5183;51.190;6.820;2022-09-20T03:03:28;9.63;;;3.53;;
10275;SDS011;5183;51.190;6.820;2022-09-20T03:06:03;11.90;;;4.10;;
10275;SDS011;5183;51.190;6.820;2022-09-20T03:08:40;10.43;;;3.60;;
10275;SDS011;5183;51.190;6.820;2022-09-20T03:11:17;11.00;;;3.33;;
10275;SDS011;5183;51.190;6.820;2022-09-20T03:13:56;9.43;;;3.43;;
10275;SDS011;5183;51.190;6.820;2022-09-20T03:16:35;14.70;;;3.77;;
10275;SDS011;5183;51.190;6.820;2022-09-20T03:19:14;8.67;;;3.50;;
10275;SDS011;5183;51.190;6.820;2022-09-20T03:21:50;11.23;;;3.73;;
10275;SDS011;5183;51.190;6.820;2022-09-20T03:24:29;9.07;;;3.30;;
10275;SDS011;5183;51.190;6.820;2022-09-20T03:27:10;8.50;;;3.23;;
10275;SDS011;5183;51.190;6.820;2022-09-20T03:29:48;11.40;;;4.23;;
10275;SDS011;5183;51.190;6.820;2022-09-20T03:32:27;12.40;;;3.67;;
10275;SDS011;5183;51.190;6.820;2022-09-20T03:35:17;8.97;;;4.27;;
10275;SDS011;5183;51.190;6.820;2022-09-20T03:37:57;11.50;;;4.00;;
10275;SDS011;5183;51.190;6.820;2022-09-20T03:40:51;19.23;;;4.70;;
10275;SDS011;5183;51.190;6.820;2022-09-20T03:43:30;12.70;;;4.30;;
10275;SDS011;5183;51.190;6.820;2022-09-20T03:46:14;16.17;;;4.27;;
10275;SDS011;5183;51.190;6.820;2022-09-20T03:49:01;13.17;;;4.60;;
10275;SDS011;5183;51.190;6.820;2022-09-20T03:51:53;9.03;;;4.43;;
10275;SDS011;5183;51.190;6.820;2022-09-20T03:54:33;10.73;;;4.90;;
10275;SDS011;5183;51.190;6.820;2022-09-20T03:57:35;14.50;;;4.57;;
10275;SDS011;5183;51.190;6.820;2022-09-20T04:00:21;10.93;;;4.47;;
10275;SDS011;5183;51.190;6.820;2022-09-20T04:02:52;13.60;;;4.53;;
10275;SDS011;5183;51.190;6.820;2022-09-20T04:05:42;11.60;;;4.90;;
10275;SDS011;5183;51.190;6.820;2022-09-20T04:08:38;15.40;;;5.33;;
10275;SDS011;5183;51.190;6.820;2022-09-20T04:11:20;8.37;;;4.50;;
10275;SDS011;5183;51.190;6.820;2022-09-20T04:13:56;14.17;;;5.10;;
10275;SDS011;5183;51.190;6.820;2022-09-20T04:16:34;8.07;;;4.37;;
10275;SDS011;5183;51.190;6.820;2022-09-20T04:19:10;11.93;;;5.00;;
10275;SDS011;5183;51.190;6.820;2022-09-20T04:21:42;11.90;;;4.73;;
10275;SDS011;5183;51.190;6.820;2022-09-20T04:24:24;10.03;;;4.57;;
10275;SDS011;5183;51.190;6.820;2022-09-20T04:27:02;9.23;;;4.37;;
10275;SDS011;5183;51.190;6.820;2022-09-20T04:29:38;14.43;;;5.40;;
10275;SDS011;5183;51.190;6.820;2022-09-20T04:32:12;10.47;;;5.27;;
10275;SDS011;5183;51.190;6.820;2022-09-20T04:34:44;11.47;;;4.57;;
10275;SDS011;5183;51.190;6.820;2022-09-20T04:37:33;14.93;;;5.23;;
10275;SDS011;5183;51.190;6.820;2022-09-20T04:40:05;11.70;;;5.27;;
10275;SDS011;5183;51.190;6.820;2022-09-20T04:46:02;11.17;;;4.93;;
10275;SDS011;5183;51.190;6.820;2022-09-20T04:55:21;12.43;;;5.40;;
10275;SDS011;5183;51.190;6.820;2022-09-20T04:58:19;10.50;;;4.80;;
10275;SDS011;5183;51.190;6.820;2022-09-20T05:07:13;11.17;;;5.00;;
10275;SDS011;5183;51.190;6.820;2022-09-20T05:10:03;11.50;;;5.77;;
10275;SDS011;5183;51.190;6.820;2022-09-20T05:12:55;13.70;;;6.27;;
10275;SDS011;5183;51.190;6.820;2022-09-20T05:15:37;11.80;;;6.03;;
10275;SDS011;5183;51.190;6.820;2022-09-20T05:18:13;15.03;;;6.67;;
10275;SDS011;5183;51.190;6.820;2022-09-20T05:21:14;14.53;;;6.70;;
10275;SDS011;5183;51.190;6.820;2022-09-20T05:23:55;12.63;;;6.30;;
10275;SDS011;5183;51.190;6.820;2022-09-20T05:26:37;13.90;;;7.83;;
10275;SDS011;5183;51.190;6.820;2022-09-20T05:29:16;17.93;;;7.07;;
10275;SDS011;5183;51.190;6.820;2022-09-20T05:31:48;16.80;;;6.80;;
10275;SDS011;5183;51.190;6.820;2022-09-20T05:34:19;15.43;;;6.93;;
10275;SDS011;5183;51.190;6.820;2022-09-20T05:36:56;15.30;;;7.10;;
10275;SDS011;5183;51.190;6.820;2022-09-20T05:39:33;11.87;;;6.37;;
10275;SDS011;5183;51.190;6.820;2022-09-20T05:42:08;14.57;;;7.47;;
10275;SDS011;5183;51.190;6.820;2022-09-20T05:47:34;15.13;;;6.90;;
10275;SDS011;5183;51.190;6.820;2022-09-20T05:50:11;19.43;;;7.47;;
10275;SDS011;5183;51.190;6.820;2022-09-20T05:52:52;11.30;;;7.20;;
10275;SDS011;5183;51.190;6.820;2022-09-20T05:55:33;13.60;;;6.93;;
10275;SDS011;5183;51.190;6.820;2022-09-20T05:58:21;16.87;;;7.17;;
10275;SDS011;5183;51.190;6.820;2022-09-20T06:01:01;10.10;;;6.20;;
10275;SDS011;5183;51.190;6.820;2022-09-20T06:03:34;9.47;;;6.40;;
10275;SDS011;5183;51.190;6.820;2022-09-20T06:06:09;12.80;;;7.17;;
10275;SDS011;5183;51.190;6.820;2022-09-20T06:11:48;8.27;;;6.20;;
10275;SDS011;5183;51.190;6.820;2022-09-20T06:14:29;11.17;;;6.33;;
10275;SDS011;5183;51.190;6.820;2022-09-20T06:17:10;11.17;;;6.70;;
10275;SDS011;5183;51.190;6.820;2022-09-20T06:19:47;13.53;;;6.67;;
10275;SDS011;5183;51.190;6.820;2022-09-20T06:22:18;13.70;;;6.33;;
10275;SDS011;5183;51.190;6.820;2022-09-20T06:24:53;11.93;;;6.67;;
10275;SDS011;5183;51.190;6.820;2022-09-20T06:27:27;11.33;;;6.13;;
10275;SDS011;5183;51.190;6.820;2022-09-20T06:29:58;10.63;;;6.60;;
10275;SDS011;5183;51.190;6.820;2022-09-20T06:32:29;10.73;;;5.93;;
10275;SDS011;5183;51.190;6.820;2022-09-20T06:34:58;24.70;;;7.13;;
10275;SDS011;5183;51.190;6.820;2022-09-20T06:37:33;13.00;;;7.10;;
10275;SDS011;5183;51.190;6.820;2022-09-20T06:40:32;12.03;;;6.43;;
10275;SDS011;5183;51.190;6.820;2022-09-20T06:43:21;11.13;;;6.90;;
10275;SDS011;5183;51.190;6.820;2022-09-20T06:45:48;8.97;;;5.90;;
10275;SDS011;5183;51.190;6.820;2022-09-20T06:48:15;14.57;;;7.70;;
10275;SDS011;5183;51.190;6.820;2022-09-20T06:50:43;11.23;;;6.47;;
10275;SDS011;5183;51.190;6.820;2022-09-20T06:53:12;14.50;;;8.00;;
10275;SDS011;5183;51.190;6.820;2022-09-20T06:55:43;14.67;;;6.80;;
10275;SDS011;5183;51.190;6.820;2022-09-20T06:58:10;14.60;;;7.27;;
10275;SDS011;5183;51.190;6.820;2022-09-20T07:00:37;10.47;;;6.37;;
10275;SDS011;5183;51.190;6.820;2022-09-20T07:03:05;9.33;;;5.97;;
10275;SDS011;5183;51.190;6.820;2022-09-20T07:05:32;11.00;;;6.13;;
10275;SDS011;5183;51.190;6.820;2022-09-20T07:08:00;11.70;;;6.03;;
10275;SDS011;5183;51.190;6.820;2022-09-20T07:10:28;13.67;;;6.97;;
10275;SDS011;5183;51.190;6.820;2022-09-20T07:12:57;14.87;;;6.33;;
10275;SDS011;5183;51.190;6.820;2022-09-20T07:15:25;12.97;;;6.23;;
10275;SDS011;5183;51.190;6.820;2022-09-20T07:17:52;17.53;;;6.90;;
10275;SDS011;5183;51.190;6.820;2022-09-20T07:20:19;9.63;;;6.17;;
10275;SDS011;5183;51.190;6.820;2022-09-20T07:22:46;12.17;;;6.43;;
10275;SDS011;5183;51.190;6.820;2022-09-20T07:25:13;13.73;;;6.87;;
10275;SDS011;5183;51.190;6.820;2022-09-20T07:27:42;11.13;;;7.20;;
10275;SDS011;5183;51.190;6.820;2022-09-20T07:30:12;10.90;;;5.43;;
10275;SDS011;5183;51.190;6.820;2022-09-20T07:32:39;11.63;;;5.13;;
10275;SDS011;5183;51.190;6.820;2022-09-20T07:35:07;12.27;;;5.23;;
10275;SDS011;5183;51.190;6.820;2022-09-20T07:37:35;9.43;;;5.37;;
10275;SDS011;5183;51.190;6.820;2022-09-20T07:40:02;9.80;;;5.20;;
10275;SDS011;5183;51.190;6.820;2022-09-20T07:42:30;9.93;;;5.03;;
10275;SDS011;5183;51.190;6.820;2022-09-20T07:44:57;12.07;;;5.43;;
10275;SDS011;5183;51.190;6.820;2022-09-20T07:47:28;11.50;;;5.67;;
10275;SDS011;5183;51.190;6.820;2022-09-20T07:49:59;10.33;;;6.03;;
10275;SDS011;5183;51.190;6.820;2022-09-20T07:52:26;8.37;;;5.10;;
10275;SDS011;5183;51.190;6.820;2022-09-20T07:54:53;10.33;;;4.53;;
10275;SDS011;5183;51.190;6.820;2022-09-20T07:57:20;7.73;;;5.07;;
10275;SDS011;5183;51.190;6.820;2022-09-20T07:59:47;6.40;;;3.77;;
10275;SDS011;5183;51.190;6.820;2022-09-20T08:02:14;8.33;;;3.70;;
10275;SDS011;5183;51.190;6.820;2022-09-20T08:04:43;9.03;;;3.73;;
10275;SDS011;5183;51.190;6.820;2022-09-20T08:07:11;9.10;;;4.30;;
10275;SDS011;5183;51.190;6.820;2022-09-20T08:09:38;8.47;;;4.07;;
10275;SDS011;5183;51.190;6.820;2022-09-20T08:12:05;10.50;;;4.40;;
10275;SDS011;5183;51.190;6.820;2022-09-20T08:14:32;9.97;;;4.00;;
10275;SDS011;5183;51.190;6.820;2022-09-20T08:17:00;10.37;;;4.17;;
10275;SDS011;5183;51.190;6.820;2022-09-20T08:19:27;7.80;;;3.80;;
10275;SDS011;5183;51.190;6.820;2022-09-20T08:21:56;8.80;;;3.80;;
10275;SDS011;5183;51.190;6.820;2022-09-20T08:24:22;8.33;;;3.60;;
10275;SDS011;5183;51.190;6.820;2022-09-20T08:26:51;9.20;;;3.57;;
10275;SDS011;5183;51.190;6.820;2022-09-20T08:29:18;9.00;;;3.90;;
10275;SDS011;5183;51.190;6.820;2022-09-20T08:31:45;7.07;;;4.07;;
10275;SDS011;5183;51.190;6.820;2022-09-20T08:34:12;7.10;;;3.80;;
10275;SDS011;5183;51.190;6.820;2022-09-20T08:36:42;10.47;;;4.20;;
10275;SDS011;5183;51.190;6.820;2022-09-20T08:39:12;7.07;;;3.83;;
10275;SDS011;5183;51.190;6.820;2022-09-20T08:41:41;7.77;;;3.83;;
10275;SDS011;5183;51.190;6.820;2022-09-20T08:44:12;10.87;;;4.07;;
10275;SDS011;5183;51.190;6.820;2022-09-20T08:46:45;10.53;;;3.97;;
10275;SDS011;5183;51.190;6.820;2022-09-20T08:49:23;7.87;;;5.27;;
10275;SDS011;5183;51.190;6.820;2022-09-20T08:51:52;10.33;;;3.97;;
10275;SDS011;5183;51.190;6.820;2022-09-20T08:54:23;11.20;;;4.13;;
10275;SDS011;5183;51.190;6.820;2022-09-20T08:56:51;8.70;;;3.73;;
10275;SDS011;5183;51.190;6.820;2022-09-20T08:59:19;8.27;;;3.60;;
10275;SDS011;5183;51.190;6.820;2022-09-20T09:01:49;6.80;;;3.20;;
10275;SDS011;5183;51.190;6.820;2022-09-20T09:04:18;6.00;;;3.40;;
10275;SDS011;5183;51.190;6.820;2022-09-20T09:06:47;6.63;;;2.70;;
10275;SDS011;5183;51.190;6.820;2022-09-20T09:09:17;7.20;;;2.87;;
10275;SDS011;5183;51.190;6.820;2022-09-20T09:11:48;6.17;;;2.80;;
10275;SDS011;5183;51.190;6.820;2022-09-20T09:14:22;5.70;;;2.40;;
10275;SDS011;5183;51.190;6.820;2022-09-20T09:17:08;6.77;;;2.20;;
10275;SDS011;5183;51.190;6.820;2022-09-20T09:19:43;8.63;;;2.97;;
10275;SDS011;5183;51.190;6.820;2022-09-20T09:22:16;8.17;;;2.47;;
10275;SDS011;5183;51.190;6.820;2022-09-20T09:24:45;9.10;;;2.57;;
10275;SDS011;5183;51.190;6.820;2022-09-20T09:27:29;6.97;;;2.40;;
10275;SDS011;5183;51.190;6.820;2022-09-20T09:29:56;5.57;;;2.37;;
10275;SDS011;5183;51.190;6.820;2022-09-20T09:32:24;7.80;;;2.23;;
10275;SDS011;5183;51.190;6.820;2022-09-20T09:34:53;6.83;;;2.10;;
10275;SDS011;5183;51.190;6.820;2022-09-20T09:37:21;6.53;;;2.40;;
10275;SDS011;5183;51.190;6.820;2022-09-20T09:40:04;8.23;;;1.93;;
10275;SDS011;5183;51.190;6.820;2022-09-20T09:42:35;7.40;;;2.00;;
10275;SDS011;5183;51.190;6.820;2022-09-20T09:45:12;7.67;;;2.40;;
10275;SDS011;5183;51.190;6.820;2022-09-20T09:47:51;5.57;;;2.00;;
10275;SDS011;5183;51.190;6.820;2022-09-20T09:50:20;6.23;;;1.80;;
10275;SDS011;5183;51.190;6.820;2022-09-20T09:52:55;7.37;;;1.83;;
10275;SDS011;5183;51.190;6.820;2022-09-20T09:55:24;3.80;;;2.00;;
10275;SDS011;5183;51.190;6.820;2022-09-20T09:57:57;9.40;;;2.97;;
10275;SDS011;5183;51.190;6.820;2022-09-20T10:00:29;5.37;;;1.80;;
10275;SDS011;5183;51.190;6.820;2022-09-20T10:03:04;5.83;;;1.80;;
10275;SDS011;5183;51.190;6.820;2022-09-20T10:05:54;5.43;;;1.57;;
10275;SDS011;5183;51.190;6.820;2022-09-20T10:08:32;7.20;;;1.90;;
10275;SDS011;5183;51.190;6.820;2022-09-20T10:11:11;6.13;;;1.90;;
10275;SDS011;5183;51.190;6.820;2022-09-20T10:13:50;6.87;;;1.80;;
10275;SDS011;5183;51.190;6.820;2022-09-20T10:16:28;6.80;;;2.50;;
10275;SDS011;5183;51.190;6.820;2022-09-20T10:19:05;5.53;;;1.47;;
10275;SDS011;5183;51.190;6.820;2022-09-20T10:21:41;6.87;;;1.77;;
10275;SDS011;5183;51.190;6.820;2022-09-20T10:24:19;7.63;;;1.60;;
10275;SDS011;5183;51.190;6.820;2022-09-20T10:27:11;7.90;;;1.73;;
10275;SDS011;5183;51.190;6.820;2022-09-20T10:29:49;5.97;;;1.90;;
10275;SDS011;5183;51.190;6.820;2022-09-20T10:32:30;8.00;;;1.90;;
10275;SDS011;5183;51.190;6.820;2022-09-20T10:35:14;11.17;;;2.23;;
10275;SDS011;5183;51.190;6.820;2022-09-20T10:40:43;7.03;;;1.63;;
10275;SDS011;5183;51.190;6.820;2022-09-20T10:43:41;5.70;;;1.50;;
10275;SDS011;5183;51.190;6.820;2022-09-20T10:46:25;4.53;;;1.43;;
10275;SDS011;5183;51.190;6.820;2022-09-20T10:49:08;4.70;;;1.70;;
10275;SDS011;5183;51.190;6.820;2022-09-20T10:51:52;5.77;;;1.70;;
10275;SDS011;5183;51.190;6.820;2022-09-20T10:54:30;5.47;;;1.70;;
10275;SDS011;5183;51.190;6.820;2022-09-20T10:57:17;5.20;;;1.90;;
10275;SDS011;5183;51.190;6.820;2022-09-20T11:00:03;4.33;;;1.80;;
10275;SDS011;5183;51.190;6.820;2022-09-20T11:02:48;4.77;;;1.60;;
10275;SDS011;5183;51.190;6.820;2022-09-20T11:05:28;3.67;;;1.37;;
10275;SDS011;5183;51.190;6.820;2022-09-20T11:08:03;5.00;;;1.63;;
10275;SDS011;5183;51.190;6.820;2022-09-20T11:10:36;3.87;;;1.30;;
10275;SDS011;5183;51.190;6.820;2022-09-20T11:13:09;3.50;;;1.33;;
10275;SDS011;5183;51.190;6.820;2022-09-20T11:15:43;6.63;;;1.53;;
10275;SDS011;5183;51.190;6.820;2022-09-20T11:18:16;2.37;;;1.23;;
10275;SDS011;5183;51.190;6.820;2022-09-20T11:20:50;2.13;;;1.20;;
10275;SDS011;5183;51.190;6.820;2022-09-20T11:23:23;4.47;;;1.27;;
10275;SDS011;5183;51.190;6.820;2022-09-20T11:25:58;2.73;;;1.13;;
10275;SDS011;5183;51.190;6.820;2022-09-20T11:28:32;3.50;;;1.30;;
10275;SDS011;5183;51.190;6.820;2022-09-20T11:31:05;4.40;;;1.30;;
10275;SDS011;5183;51.190;6.820;2022-09-20T11:33:38;4.20;;;1.30;;
10275;SDS011;5183;51.190;6.820;2022-09-20T11:36:09;3.50;;;0.90;;
10275;SDS011;5183;51.190;6.820;2022-09-20T11:38:41;2.30;;;1.03;;
10275;SDS011;5183;51.190;6.820;2022-09-20T11:41:15;2.30;;;1.00;;
10275;SDS011;5183;51.190;6.820;2022-09-20T11:43:46;4.03;;;1.07;;
10275;SDS011;5183;51.190;6.820;2022-09-20T11:46:18;2.77;;;1.00;;
10275;SDS011;5183;51.190;6.820;2022-09-20T11:48:53;3.50;;;1.10;;
10275;SDS011;5183;51.190;6.820;2022-09-20T11:51:43;3.53;;;1.30;;
10275;SDS011;5183;51.190;6.820;2022-09-20T11:57:36;2.67;;;1.00;;
10275;SDS011;5183;51.190;6.820;2022-09-20T12:00:04;4.17;;;1.27;;
10275;SDS011;5183;51.190;6.820;2022-09-20T12:02:34;3.40;;;1.77;;
10275;SDS011;5183;51.190;6.820;2022-09-20T12:05:07;3.40;;;1.00;;
10275;SDS011;5183;51.190;6.820;2022-09-20T12:07:56;3.63;;;1.10;;
10275;SDS011;5183;51.190;6.820;2022-09-20T12:10:26;3.47;;;0.80;;
10275;SDS011;5183;51.190;6.820;2022-09-20T12:12:58;3.27;;;1.20;;
10275;SDS011;5183;51.190;6.820;2022-09-20T12:15:28;3.53;;;1.00;;
10275;SDS011;5183;51.190;6.820;2022-09-20T12:18:04;3.03;;;1.37;;
10275;SDS011;5183;51.190;6.820;2022-09-20T12:26:37;2.10;;;1.20;;
10275;SDS011;5183;51.190;6.820;2022-09-20T12:41:47;4.97;;;1.20;;
10275;SDS011;5183;51.190;6.820;2022-09-20T12:44:25;2.67;;;1.00;;
10275;SDS011;5183;51.190;6.820;2022-09-20T12:46:55;4.10;;;1.40;;
10275;SDS011;5183;51.190;6.820;2022-09-20T12:49:35;4.20;;;1.40;;
10275;SDS011;5183;51.190;6.820;2022-09-20T12:52:23;7.60;;;1.83;;
10275;SDS011;5183;51.190;6.820;2022-09-20T12:55:12;4.30;;;1.23;;
10275;SDS011;5183;51.190;6.820;2022-09-20T12:58:01;6.97;;;1.80;;
10275;SDS011;5183;51.190;6.820;2022-09-20T13:00:31;3.23;;;1.40;;
10275;SDS011;5183;51.190;6.820;2022-09-20T13:03:09;7.33;;;1.70;;
10275;SDS011;5183;51.190;6.820;2022-09-20T13:05:48;4.80;;;1.47;;
10275;SDS011;5183;51.190;6.820;2022-09-20T13:08:17;5.30;;;1.57;;
10275;SDS011;5183;51.190;6.820;2022-09-20T13:10:47;5.67;;;1.57;;
10275;SDS011;5183;51.190;6.820;2022-09-20T13:13:27;5.03;;;1.70;;
10275;SDS011;5183;51.190;6.820;2022-09-20T13:15:58;5.83;;;2.00;;
10275;SDS011;5183;51.190;6.820;2022-09-20T13:18:29;7.10;;;1.40;;
10275;SDS011;5183;51.190;6.820;2022-09-20T13:20:57;5.53;;;1.77;;
10275;SDS011;5183;51.190;6.820;2022-09-20T13:23:31;3.27;;;1.40;;
10275;SDS011;5183;51.190;6.820;2022-09-20T13:26:10;4.10;;;1.40;;
10275;SDS011;5183;51.190;6.820;2022-09-20T13:28:43;4.10;;;1.40;;
10275;SDS011;5183;51.190;6.820;2022-09-20T13:31:22;7.03;;;1.43;;
10275;SDS011;5183;51.190;6.820;2022-09-20T13:33:50;6.13;;;1.60;;
10275;SDS011;5183;51.190;6.820;2022-09-20T13:36:18;4.00;;;1.20;;
10275;SDS011;5183;51.190;6.820;2022-09-20T13:38:51;4.53;;;1.27;;
10275;SDS011;5183;51.190;6.820;2022-09-20T13:41:20;3.50;;;1.40;;
10275;SDS011;5183;51.190;6.820;2022-09-20T13:43:49;5.43;;;1.40;;
10275;SDS011;5183;51.190;6.820;2022-09-20T13:46:20;3.57;;;1.30;;
10275;SDS011;5183;51.190;6.820;2022-09-20T13:48:52;4.40;;;1.47;;
10275;SDS011;5183;51.190;6.820;2022-09-20T13:51:24;4.03;;;1.20;;
10275;SDS011;5183;51.190;6.820;2022-09-20T13:53:52;3.67;;;1.43;;
10275;SDS011;5183;51.190;6.820;2022-09-20T13:56:20;3.37;;;1.23;;
10275;SDS011;5183;51.190;6.820;2022-09-20T13:58:52;5.03;;;1.30;;
10275;SDS011;5183;51.190;6.820;2022-09-20T14:01:20;5.97;;;1.33;;
10275;SDS011;5183;51.190;6.820;2022-09-20T14:03:51;3.30;;;1.37;;
10275;SDS011;5183;51.190;6.820;2022-09-20T14:06:21;2.47;;;1.30;;
10275;SDS011;5183;51.190;6.820;2022-09-20T14:08:51;2.07;;;1.07;;
10275;SDS011;5183;51.190;6.820;2022-09-20T14:11:18;2.60;;;1.10;;
10275;SDS011;5183;51.190;6.820;2022-09-20T14:13:49;3.83;;;1.20;;
10275;SDS011;5183;51.190;6.820;2022-09-20T14:16:19;4.03;;;1.30;;
10275;SDS011;5183;51.190;6.820;2022-09-20T14:18:48;2.90;;;1.27;;
10275;SDS011;5183;51.190;6.820;2022-09-20T14:21:16;5.00;;;1.70;;
10275;SDS011;5183;51.190;6.820;2022-09-20T14:23:48;3.00;;;1.17;;
10275;SDS011;5183;51.190;6.820;2022-09-20T14:26:24;3.37;;;1.23;;
10275;SDS011;5183;51.190;6.820;2022-09-20T14:28:53;4.10;;;1.53;;
10275;SDS011;5183;51.190;6.820;2022-09-20T14:31:21;5.30;;;1.60;;
10275;SDS011;5183;51.190;6.820;2022-09-20T14:33:51;4.67;;;1.10;;
10275;SDS011;5183;51.190;6.820;2022-09-20T14:36:20;4.70;;;1.47;;
10275;SDS011;5183;51.190;6.820;2022-09-20T14:38:49;3.20;;;1.20;;
10275;SDS011;5183;51.190;6.820;2022-09-20T14:41:24;4.47;;;1.40;;
10275;SDS011;5183;51.190;6.820;2022-09-20T14:43:56;3.37;;;1.17;;
10275;SDS011;5183;51.190;6.820;2022-09-20T14:46:27;2.80;;;1.10;;
10275;SDS011;5183;51.190;6.820;2022-09-20T14:51:45;3.50;;;1.20;;
10275;SDS011;5183;51.190;6.820;2022-09-20T14:54:21;2.80;;;1.03;;
10275;SDS011;5183;51.190;6.820;2022-09-20T14:56:51;4.03;;;1.20;;
10275;SDS011;5183;51.190;6.820;2022-09-20T14:59:20;2.90;;;1.17;;
10275;SDS011;5183;51.190;6.820;2022-09-20T15:01:56;3.13;;;1.10;;
10275;SDS011;5183;51.190;6.820;2022-09-20T15:04:29;4.37;;;1.10;;
10275;SDS011;5183;51.190;6.820;2022-09-20T15:06:59;4.75;;;1.20;;
10275;SDS011;5183;51.190;6.820;2022-09-20T15:09:27;3.87;;;1.00;;
10275;SDS011;5183;51.190;6.820;2022-09-20T15:11:58;2.60;;;0.90;;
10275;SDS011;5183;51.190;6.820;2022-09-20T15:14:28;2.90;;;1.20;;
10275;SDS011;5183;51.190;6.820;2022-09-20T15:16:55;3.10;;;1.00;;
10275;SDS011;5183;51.190;6.820;2022-09-20T15:19:23;2.50;;;0.87;;
10275;SDS011;5183;51.190;6.820;2022-09-20T15:21:50;3.80;;;1.00;;
10275;SDS011;5183;51.190;6.820;2022-09-20T15:24:17;1.67;;;0.80;;
10275;SDS011;5183;51.190;6.820;2022-09-20T15:26:44;2.73;;;1.10;;
10275;SDS011;5183;51.190;6.820;2022-09-20T15:29:13;1.87;;;0.90;;
10275;SDS011;5183;51.190;6.820;2022-09-20T15:31:42;2.43;;;0.80;;
10275;SDS011;5183;51.190;6.820;2022-09-20T15:34:11;1.83;;;0.93;;
10275;SDS011;5183;51.190;6.820;2022-09-20T15:36:39;1.40;;;0.87;;
10275;SDS011;5183;51.190;6.820;2022-09-20T15:39:06;4.00;;;1.00;;
10275;SDS011;5183;51.190;6.820;2022-09-20T15:41:33;4.17;;;1.40;;
10275;SDS011;5183;51.190;6.820;2022-09-20T15:44:01;1.97;;;0.97;;
10275;SDS011;5183;51.190;6.820;2022-09-20T15:46:28;1.77;;;0.90;;
10275;SDS011;5183;51.190;6.820;2022-09-20T15:48:57;3.87;;;1.20;;
10275;SDS011;5183;51.190;6.820;2022-09-20T15:51:27;3.40;;;1.20;;
10275;SDS011;5183;51.190;6.820;2022-09-20T15:53:56;3.50;;;1.30;;
10275;SDS011;5183;51.190;6.820;2022-09-20T15:56:25;3.00;;;1.20;;
10275;SDS011;5183;51.190;6.820;2022-09-20T15:58:53;2.37;;;1.37;;
10275;SDS011;5183;51.190;6.820;2022-09-20T16:01:23;5.53;;;1.40;;
10275;SDS011;5183;51.190;6.820;2022-09-20T16:03:52;3.57;;;1.30;;
10275;SDS011;5183;51.190;6.820;2022-09-20T16:06:21;3.57;;;1.30;;
10275;SDS011;5183;51.190;6.820;2022-09-20T16:08:48;5.37;;;1.40;;
10275;SDS011;5183;51.190;6.820;2022-09-20T16:11:16;3.87;;;1.20;;
10275;SDS011;5183;51.190;6.820;2022-09-20T16:13:44;2.00;;;1.23;;
10275;SDS011;5183;51.190;6.820;2022-09-20T16:16:11;4.33;;;1.40;;
10275;SDS011;5183;51.190;6.820;2022-09-20T16:18:39;4.37;;;1.50;;
10275;SDS011;5183;51.190;6.820;2022-09-20T16:21:22;4.07;;;1.50;;
10275;SDS011;5183;51.190;6.820;2022-09-20T16:23:49;2.93;;;1.53;;
10275;SDS011;5183;51.190;6.820;2022-09-20T16:26:17;4.77;;;1.50;;
10275;SDS011;5183;51.190;6.820;2022-09-20T16:28:46;4.10;;;1.30;;
10275;SDS011;5183;51.190;6.820;2022-09-20T16:31:33;4.17;;;1.40;;
10275;SDS011;5183;51.190;6.820;2022-09-20T16:34:04;4.73;;;1.60;;
10275;SDS011;5183;51.190;6.820;2022-09-20T16:36:36;4.93;;;1.60;;
10275;SDS011;5183;51.190;6.820;2022-09-20T16:39:04;3.87;;;1.50;;
10275;SDS011;5183;51.190;6.820;2022-09-20T16:41:31;3.53;;;1.30;;
10275;SDS011;5183;51.190;6.820;2022-09-20T16:43:58;3.07;;;1.30;;